sensor_id;sensor_type;location;lat;lon;timestamp;P1;durP1;ratioP1;P2;durP2;ratioP2
45802;SDS011;31504;51.716;9.184;2022-09-20T00:02:56;5.30;;;3.53;;
45802;SDS011;31504;51.716;9.184;2022-09-20T00:05:59;5.35;;;3.83;;
45802;SDS011;31504;51.716;9.184;2022-09-20T00:09:01;6.50;;;4.23;;
45802;SDS011;31504;51.716;9.184;2022-09-20T00:12:03;5.03;;;3.20;;
45802;SDS011;31504;51.716;9.184;2022-09-20T00:15:04;6.10;;;3.83;;
45802;SDS011;31504;51.716;9.184;2022-09-20T00:18:05;4.70;;;3.60;;
45802;SDS011;31504;51.716;9.184;2022-09-20T00:21:06;5.40;;;4.17;;
45802;SDS011;31504;51.716;9.184;2022-09-20T00:24:06;7.53;;;3.70;;
45802;SDS011;31504;51.716;9.184;2022-09-20T00:27:08;5.50;;;3.60;;
45802;SDS011;31504;51.716;9.184;2022-09-20T00:30:09;5.40;;;3.60;;
45802;SDS011;31504;51.716;9.184;2022-09-20T00:33:09;5.47;;;3.25;;
45802;SDS011;31504;51.716;9.184;2022-09-20T00:36:10;4.15;;;2.95;;
45802;SDS011;31504;51.716;9.184;2022-09-20T00:39:11;5.83;;;3.20;;
45802;SDS011;31504;51.716;9.184;2022-09-20T00:42:13;4.80;;;3.22;;
45802;SDS011;31504;51.716;9.184;2022-09-20T00:48:26;4.90;;;3.78;;
45802;SDS011;31504;51.716;9.184;2022-09-20T00:51:30;4.40;;;3.47;;
45802;SDS011;31504;51.716;9.184;2022-09-20T00:54:34;6.13;;;3.80;;
45802;SDS011;31504;51.716;9.184;2022-09-20T00:57:35;4.35;;;3.40;;
45802;SDS011;31504;51.716;9.184;2022-09-20T01:00:37;4.47;;;3.45;;
45802;SDS011;31504;51.716;9.184;2022-09-20T01:03:39;5.23;;;3.67;;
45802;SDS011;31504;51.716;9.184;2022-09-20T01:06:41;8.35;;;3.70;;
45802;SDS011;31504;51.716;9.184;2022-09-20T01:09:44;6.40;;;3.88;;
45802;SDS011;31504;51.716;9.184;2022-09-20T01:12:44;6.95;;;4.22;;
45802;SDS011;31504;51.716;9.184;2022-09-20T01:15:47;3.97;;;3.45;;
45802;SDS011;31504;51.716;9.184;2022-09-20T01:18:49;6.85;;;4.38;;
45802;SDS011;31504;51.716;9.184;2022-09-20T01:21:50;6.28;;;4.22;;
45802;SDS011;31504;51.716;9.184;2022-09-20T01:24:58;5.17;;;3.67;;
45802;SDS011;31504;51.716;9.184;2022-09-20T01:28:09;5.50;;;3.83;;
45802;SDS011;31504;51.716;9.184;2022-09-20T01:31:17;5.80;;;4.03;;
45802;SDS011;31504;51.716;9.184;2022-09-20T01:34:32;5.50;;;3.77;;
45802;SDS011;31504;51.716;9.184;2022-09-20T01:41:08;4.83;;;4.03;;
45802;SDS011;31504;51.716;9.184;2022-09-20T01:47:58;7.15;;;4.40;;
45802;SDS011;31504;51.716;9.184;2022-09-20T01:54:42;7.55;;;4.75;;
45802;SDS011;31504;51.716;9.184;2022-09-20T02:10:57;6.07;;;4.63;;
45802;SDS011;31504;51.716;9.184;2022-09-20T02:17:42;5.57;;;4.07;;
45802;SDS011;31504;51.716;9.184;2022-09-20T02:21:10;7.10;;;4.78;;
45802;SDS011;31504;51.716;9.184;2022-09-20T02:24:28;7.13;;;4.45;;
45802;SDS011;31504;51.716;9.184;2022-09-20T02:27:47;6.63;;;5.03;;
45802;SDS011;31504;51.716;9.184;2022-09-20T02:41:32;6.15;;;5.55;;
45802;SDS011;31504;51.716;9.184;2022-09-20T02:45:01;9.32;;;6.78;;
45802;SDS011;31504;51.716;9.184;2022-09-20T02:48:06;13.18;;;9.68;;
45802;SDS011;31504;51.716;9.184;2022-09-20T02:51:11;18.17;;;14.38;;
45802;SDS011;31504;51.716;9.184;2022-09-20T02:54:40;25.83;;;19.15;;
45802;SDS011;31504;51.716;9.184;2022-09-20T03:11:26;67.72;;;53.70;;
45802;SDS011;31504;51.716;9.184;2022-09-20T03:14:56;76.88;;;61.55;;
45802;SDS011;31504;51.716;9.184;2022-09-20T03:18:18;86.72;;;69.68;;
45802;SDS011;31504;51.716;9.184;2022-09-20T03:21:41;96.00;;;77.32;;
45802;SDS011;31504;51.716;9.184;2022-09-20T03:28:26;106.05;;;85.25;;
45802;SDS011;31504;51.716;9.184;2022-09-20T03:31:43;120.63;;;99.22;;
45802;SDS011;31504;51.716;9.184;2022-09-20T03:38:40;132.45;;;107.63;;
45802;SDS011;31504;51.716;9.184;2022-09-20T03:42:13;143.20;;;116.00;;
45802;SDS011;31504;51.716;9.184;2022-09-20T03:48:58;143.68;;;116.65;;
45802;SDS011;31504;51.716;9.184;2022-09-20T04:09:39;142.20;;;119.13;;
45802;SDS011;31504;51.716;9.184;2022-09-20T04:22:30;129.40;;;109.07;;
45802;SDS011;31504;51.716;9.184;2022-09-20T04:25:36;129.43;;;108.72;;
45802;SDS011;31504;51.716;9.184;2022-09-20T04:46:02;94.80;;;76.97;;
45802;SDS011;31504;51.716;9.184;2022-09-20T04:49:38;93.22;;;75.25;;
45802;SDS011;31504;51.716;9.184;2022-09-20T04:56:48;77.32;;;60.38;;
45802;SDS011;31504;51.716;9.184;2022-09-20T05:12:57;55.17;;;43.35;;
45802;SDS011;31504;51.716;9.184;2022-09-20T05:16:03;47.90;;;39.20;;
45802;SDS011;31504;51.716;9.184;2022-09-20T05:25:56;38.15;;;30.58;;
45802;SDS011;31504;51.716;9.184;2022-09-20T05:29:32;35.77;;;28.13;;
45802;SDS011;31504;51.716;9.184;2022-09-20T05:36:15;32.70;;;25.67;;
45802;SDS011;31504;51.716;9.184;2022-09-20T05:40:12;32.13;;;24.63;;
45802;SDS011;31504;51.716;9.184;2022-09-20T05:43:12;25.95;;;21.10;;
45802;SDS011;31504;51.716;9.184;2022-09-20T05:46:34;24.23;;;19.55;;
45802;SDS011;31504;51.716;9.184;2022-09-20T05:49:43;23.97;;;19.33;;
45802;SDS011;31504;51.716;9.184;2022-09-20T05:56:15;20.33;;;17.53;;
45802;SDS011;31504;51.716;9.184;2022-09-20T05:59:36;19.70;;;15.43;;
45802;SDS011;31504;51.716;9.184;2022-09-20T06:02:55;17.47;;;14.53;;
45802;SDS011;31504;51.716;9.184;2022-09-20T06:06:20;17.60;;;14.70;;
45802;SDS011;31504;51.716;9.184;2022-09-20T06:09:33;17.90;;;13.57;;
45802;SDS011;31504;51.716;9.184;2022-09-20T06:13:00;15.20;;;12.87;;
45802;SDS011;31504;51.716;9.184;2022-09-20T06:16:17;15.82;;;12.18;;
45802;SDS011;31504;51.716;9.184;2022-09-20T06:23:08;14.00;;;11.25;;
45802;SDS011;31504;51.716;9.184;2022-09-20T06:26:13;18.52;;;11.45;;
45802;SDS011;31504;51.716;9.184;2022-09-20T06:29:25;11.73;;;9.50;;
45802;SDS011;31504;51.716;9.184;2022-09-20T06:32:29;13.85;;;9.77;;
45802;SDS011;31504;51.716;9.184;2022-09-20T06:35:33;11.83;;;9.87;;
45802;SDS011;31504;51.716;9.184;2022-09-20T06:38:42;12.30;;;8.70;;
45802;SDS011;31504;51.716;9.184;2022-09-20T06:42:11;12.45;;;9.05;;
45802;SDS011;31504;51.716;9.184;2022-09-20T06:45:11;10.43;;;8.07;;
45802;SDS011;31504;51.716;9.184;2022-09-20T06:48:12;12.67;;;9.90;;
45802;SDS011;31504;51.716;9.184;2022-09-20T06:51:14;10.67;;;8.10;;
45802;SDS011;31504;51.716;9.184;2022-09-20T06:54:19;11.97;;;8.77;;
45802;SDS011;31504;51.716;9.184;2022-09-20T06:57:21;9.70;;;7.67;;
45802;SDS011;31504;51.716;9.184;2022-09-20T07:00:25;10.38;;;7.68;;
45802;SDS011;31504;51.716;9.184;2022-09-20T07:03:25;8.90;;;6.90;;
45802;SDS011;31504;51.716;9.184;2022-09-20T07:06:26;10.23;;;7.50;;
45802;SDS011;31504;51.716;9.184;2022-09-20T07:09:27;8.88;;;7.38;;
45802;SDS011;31504;51.716;9.184;2022-09-20T07:12:28;7.95;;;6.97;;
45802;SDS011;31504;51.716;9.184;2022-09-20T07:15:32;9.75;;;6.72;;
45802;SDS011;31504;51.716;9.184;2022-09-20T07:18:34;8.35;;;6.45;;
45802;SDS011;31504;51.716;9.184;2022-09-20T07:21:34;8.80;;;6.85;;
45802;SDS011;31504;51.716;9.184;2022-09-20T07:24:35;10.57;;;6.90;;
45802;SDS011;31504;51.716;9.184;2022-09-20T07:27:35;8.20;;;6.70;;
45802;SDS011;31504;51.716;9.184;2022-09-20T07:30:36;7.78;;;6.47;;
45802;SDS011;31504;51.716;9.184;2022-09-20T07:33:37;8.27;;;5.78;;
45802;SDS011;31504;51.716;9.184;2022-09-20T07:36:38;7.47;;;6.35;;
45802;SDS011;31504;51.716;9.184;2022-09-20T07:39:38;8.15;;;6.38;;
45802;SDS011;31504;51.716;9.184;2022-09-20T07:42:39;7.55;;;6.38;;
45802;SDS011;31504;51.716;9.184;2022-09-20T07:45:39;9.20;;;6.80;;
45802;SDS011;31504;51.716;9.184;2022-09-20T07:48:40;9.32;;;6.65;;
45802;SDS011;31504;51.716;9.184;2022-09-20T07:51:41;9.20;;;6.40;;
45802;SDS011;31504;51.716;9.184;2022-09-20T07:54:42;9.95;;;7.20;;
45802;SDS011;31504;51.716;9.184;2022-09-20T07:57:44;9.65;;;6.80;;
45802;SDS011;31504;51.716;9.184;2022-09-20T08:00:49;9.35;;;6.70;;
45802;SDS011;31504;51.716;9.184;2022-09-20T08:03:58;7.55;;;6.20;;
45802;SDS011;31504;51.716;9.184;2022-09-20T08:06:58;8.40;;;5.80;;
45802;SDS011;31504;51.716;9.184;2022-09-20T08:10:00;7.65;;;6.03;;
45802;SDS011;31504;51.716;9.184;2022-09-20T08:13:01;10.32;;;6.28;;
45802;SDS011;31504;51.716;9.184;2022-09-20T08:16:03;7.60;;;6.22;;
45802;SDS011;31504;51.716;9.184;2022-09-20T08:19:05;8.80;;;5.97;;
45802;SDS011;31504;51.716;9.184;2022-09-20T08:22:05;9.25;;;6.20;;
45802;SDS011;31504;51.716;9.184;2022-09-20T08:25:06;7.68;;;5.78;;
45802;SDS011;31504;51.716;9.184;2022-09-20T08:28:07;8.95;;;7.10;;
45802;SDS011;31504;51.716;9.184;2022-09-20T08:31:08;9.23;;;6.50;;
45802;SDS011;31504;51.716;9.184;2022-09-20T08:34:12;7.72;;;6.68;;
45802;SDS011;31504;51.716;9.184;2022-09-20T08:37:14;9.07;;;7.22;;
45802;SDS011;31504;51.716;9.184;2022-09-20T08:40:14;10.95;;;7.85;;
45802;SDS011;31504;51.716;9.184;2022-09-20T08:43:15;8.80;;;7.53;;
45802;SDS011;31504;51.716;9.184;2022-09-20T08:46:17;11.38;;;7.85;;
45802;SDS011;31504;51.716;9.184;2022-09-20T08:49:26;8.85;;;7.22;;
45802;SDS011;31504;51.716;9.184;2022-09-20T08:52:29;7.97;;;7.10;;
45802;SDS011;31504;51.716;9.184;2022-09-20T08:55:35;8.88;;;7.18;;
45802;SDS011;31504;51.716;9.184;2022-09-20T08:58:40;9.88;;;7.65;;
45802;SDS011;31504;51.716;9.184;2022-09-20T09:01:41;9.05;;;7.32;;
45802;SDS011;31504;51.716;9.184;2022-09-20T09:04:42;10.50;;;7.50;;
45802;SDS011;31504;51.716;9.184;2022-09-20T09:07:44;7.47;;;6.75;;
45802;SDS011;31504;51.716;9.184;2022-09-20T09:10:47;8.18;;;7.10;;
45802;SDS011;31504;51.716;9.184;2022-09-20T09:13:58;9.98;;;7.10;;
45802;SDS011;31504;51.716;9.184;2022-09-20T09:17:26;9.15;;;7.32;;
45802;SDS011;31504;51.716;9.184;2022-09-20T09:20:28;9.82;;;7.40;;
45802;SDS011;31504;51.716;9.184;2022-09-20T09:23:39;9.80;;;6.43;;
45802;SDS011;31504;51.716;9.184;2022-09-20T09:26:42;9.00;;;7.30;;
45802;SDS011;31504;51.716;9.184;2022-09-20T09:29:49;8.40;;;6.60;;
45802;SDS011;31504;51.716;9.184;2022-09-20T09:32:53;8.13;;;6.60;;
45802;SDS011;31504;51.716;9.184;2022-09-20T09:36:22;7.88;;;6.22;;
45802;SDS011;31504;51.716;9.184;2022-09-20T09:39:26;9.63;;;7.40;;
45802;SDS011;31504;51.716;9.184;2022-09-20T09:42:31;8.23;;;6.93;;
45802;SDS011;31504;51.716;9.184;2022-09-20T09:45:33;6.57;;;5.93;;
45802;SDS011;31504;51.716;9.184;2022-09-20T09:48:37;8.18;;;6.50;;
45802;SDS011;31504;51.716;9.184;2022-09-20T09:51:37;7.50;;;6.28;;
45802;SDS011;31504;51.716;9.184;2022-09-20T09:54:45;6.95;;;6.25;;
45802;SDS011;31504;51.716;9.184;2022-09-20T09:57:50;8.40;;;6.13;;
45802;SDS011;31504;51.716;9.184;2022-09-20T10:00:57;9.55;;;6.25;;
45802;SDS011;31504;51.716;9.184;2022-09-20T10:04:04;7.22;;;6.40;;
45802;SDS011;31504;51.716;9.184;2022-09-20T10:10:27;6.63;;;5.72;;
45802;SDS011;31504;51.716;9.184;2022-09-20T10:14:06;6.93;;;6.22;;
45802;SDS011;31504;51.716;9.184;2022-09-20T10:17:28;6.95;;;5.75;;
45802;SDS011;31504;51.716;9.184;2022-09-20T10:20:50;8.70;;;5.70;;
45802;SDS011;31504;51.716;9.184;2022-09-20T10:24:05;8.90;;;5.88;;
45802;SDS011;31504;51.716;9.184;2022-09-20T10:27:55;9.02;;;6.40;;
45802;SDS011;31504;51.716;9.184;2022-09-20T10:31:11;5.97;;;5.37;;
45802;SDS011;31504;51.716;9.184;2022-09-20T10:41:32;6.90;;;5.77;;
45802;SDS011;31504;51.716;9.184;2022-09-20T10:45:25;7.90;;;6.70;;
45802;SDS011;31504;51.716;9.184;2022-09-20T10:48:45;8.52;;;5.72;;
45802;SDS011;31504;51.716;9.184;2022-09-20T10:52:15;6.10;;;4.90;;
45802;SDS011;31504;51.716;9.184;2022-09-20T11:02:02;7.65;;;5.93;;
45802;SDS011;31504;51.716;9.184;2022-09-20T11:05:24;7.47;;;5.40;;
45802;SDS011;31504;51.716;9.184;2022-09-20T11:08:26;8.90;;;5.80;;
45802;SDS011;31504;51.716;9.184;2022-09-20T11:11:38;8.55;;;5.90;;
45802;SDS011;31504;51.716;9.184;2022-09-20T11:14:44;11.45;;;7.82;;
45802;SDS011;31504;51.716;9.184;2022-09-20T11:18:16;13.45;;;11.07;;
45802;SDS011;31504;51.716;9.184;2022-09-20T11:21:24;20.17;;;15.90;;
45802;SDS011;31504;51.716;9.184;2022-09-20T11:24:31;29.02;;;22.30;;
45802;SDS011;31504;51.716;9.184;2022-09-20T11:27:40;29.30;;;24.92;;
45802;SDS011;31504;51.716;9.184;2022-09-20T11:31:22;36.75;;;28.45;;
45802;SDS011;31504;51.716;9.184;2022-09-20T11:34:33;49.33;;;37.08;;
45802;SDS011;31504;51.716;9.184;2022-09-20T11:37:49;44.70;;;37.35;;
45802;SDS011;31504;51.716;9.184;2022-09-20T11:40:59;57.65;;;46.88;;
45802;SDS011;31504;51.716;9.184;2022-09-20T11:44:22;59.05;;;48.00;;
45802;SDS011;31504;51.716;9.184;2022-09-20T11:47:30;61.60;;;51.63;;
45802;SDS011;31504;51.716;9.184;2022-09-20T11:57:29;72.38;;;60.28;;
45802;SDS011;31504;51.716;9.184;2022-09-20T12:00:31;74.47;;;62.38;;
45802;SDS011;31504;51.716;9.184;2022-09-20T12:03:35;81.65;;;67.78;;
45802;SDS011;31504;51.716;9.184;2022-09-20T12:06:39;89.28;;;75.05;;
45802;SDS011;31504;51.716;9.184;2022-09-20T12:09:42;91.45;;;75.63;;
45802;SDS011;31504;51.716;9.184;2022-09-20T12:12:45;90.13;;;74.15;;
45802;SDS011;31504;51.716;9.184;2022-09-20T12:16:04;90.60;;;74.53;;
45802;SDS011;31504;51.716;9.184;2022-09-20T12:22:32;93.00;;;77.60;;
45802;SDS011;31504;51.716;9.184;2022-09-20T12:25:34;91.68;;;77.43;;
45802;SDS011;31504;51.716;9.184;2022-09-20T12:28:41;91.35;;;76.05;;
45802;SDS011;31504;51.716;9.184;2022-09-20T12:31:47;96.60;;;80.43;;
45802;SDS011;31504;51.716;9.184;2022-09-20T12:34:49;108.45;;;86.53;;
45802;SDS011;31504;51.716;9.184;2022-09-20T12:37:51;108.90;;;90.78;;
45802;SDS011;31504;51.716;9.184;2022-09-20T12:44:22;130.13;;;109.55;;
45802;SDS011;31504;51.716;9.184;2022-09-20T12:47:48;143.70;;;119.90;;
45802;SDS011;31504;51.716;9.184;2022-09-20T12:51:02;141.57;;;122.07;;
45802;SDS011;31504;51.716;9.184;2022-09-20T12:54:50;134.13;;;111.30;;
45802;SDS011;31504;51.716;9.184;2022-09-20T12:57:54;120.40;;;101.55;;
45802;SDS011;31504;51.716;9.184;2022-09-20T13:07:41;77.28;;;64.15;;
45802;SDS011;31504;51.716;9.184;2022-09-20T13:11:00;87.00;;;69.28;;
45802;SDS011;31504;51.716;9.184;2022-09-20T13:14:20;89.35;;;71.40;;
45802;SDS011;31504;51.716;9.184;2022-09-20T13:17:23;98.85;;;78.43;;
45802;SDS011;31504;51.716;9.184;2022-09-20T13:20:27;103.88;;;83.30;;
45802;SDS011;31504;51.716;9.184;2022-09-20T13:23:30;104.53;;;84.10;;
45802;SDS011;31504;51.716;9.184;2022-09-20T13:26:40;106.53;;;82.50;;
45802;SDS011;31504;51.716;9.184;2022-09-20T13:29:44;103.28;;;81.15;;
45802;SDS011;31504;51.716;9.184;2022-09-20T13:32:46;103.75;;;82.93;;
45802;SDS011;31504;51.716;9.184;2022-09-20T13:35:48;111.05;;;87.85;;
45802;SDS011;31504;51.716;9.184;2022-09-20T13:38:56;110.25;;;89.32;;
45802;SDS011;31504;51.716;9.184;2022-09-20T13:41:58;108.43;;;89.85;;
45802;SDS011;31504;51.716;9.184;2022-09-20T13:45:01;112.97;;;88.65;;
45802;SDS011;31504;51.716;9.184;2022-09-20T13:48:03;110.22;;;89.30;;
45802;SDS011;31504;51.716;9.184;2022-09-20T13:51:27;101.90;;;84.75;;
45802;SDS011;31504;51.716;9.184;2022-09-20T13:54:28;105.30;;;84.20;;
45802;SDS011;31504;51.716;9.184;2022-09-20T13:57:30;106.13;;;86.15;;
45802;SDS011;31504;51.716;9.184;2022-09-20T14:00:30;100.43;;;82.40;;
45802;SDS011;31504;51.716;9.184;2022-09-20T14:03:32;101.95;;;82.65;;
45802;SDS011;31504;51.716;9.184;2022-09-20T14:06:34;105.55;;;83.22;;
45802;SDS011;31504;51.716;9.184;2022-09-20T14:09:35;97.80;;;80.57;;
45802;SDS011;31504;51.716;9.184;2022-09-20T14:12:38;97.65;;;79.15;;
45802;SDS011;31504;51.716;9.184;2022-09-20T14:15:43;102.85;;;80.70;;
45802;SDS011;31504;51.716;9.184;2022-09-20T14:18:45;93.68;;;78.80;;
45802;SDS011;31504;51.716;9.184;2022-09-20T14:21:47;98.75;;;77.85;;
45802;SDS011;31504;51.716;9.184;2022-09-20T14:24:55;96.20;;;76.60;;
45802;SDS011;31504;51.716;9.184;2022-09-20T14:28:04;98.22;;;79.60;;
45802;SDS011;31504;51.716;9.184;2022-09-20T14:31:26;100.63;;;81.32;;
45802;SDS011;31504;51.716;9.184;2022-09-20T14:34:29;102.07;;;84.15;;
45802;SDS011;31504;51.716;9.184;2022-09-20T14:37:34;107.87;;;88.60;;
45802;SDS011;31504;51.716;9.184;2022-09-20T14:40:42;113.40;;;90.53;;
45802;SDS011;31504;51.716;9.184;2022-09-20T14:43:47;121.82;;;97.70;;
45802;SDS011;31504;51.716;9.184;2022-09-20T14:46:58;115.00;;;95.87;;
45802;SDS011;31504;51.716;9.184;2022-09-20T14:49:58;119.95;;;98.38;;
45802;SDS011;31504;51.716;9.184;2022-09-20T14:53:00;131.88;;;107.90;;
45802;SDS011;31504;51.716;9.184;2022-09-20T15:08:24;151.40;;;120.07;;
45802;SDS011;31504;51.716;9.184;2022-09-20T15:11:26;152.02;;;117.63;;
45802;SDS011;31504;51.716;9.184;2022-09-20T15:14:28;133.88;;;106.72;;
45802;SDS011;31504;51.716;9.184;2022-09-20T15:17:29;128.80;;;99.90;;
45802;SDS011;31504;51.716;9.184;2022-09-20T15:20:29;119.97;;;96.32;;
45802;SDS011;31504;51.716;9.184;2022-09-20T15:23:30;115.65;;;90.25;;
45802;SDS011;31504;51.716;9.184;2022-09-20T15:26:30;99.28;;;80.53;;
45802;SDS011;31504;51.716;9.184;2022-09-20T15:29:33;91.32;;;72.70;;
45802;SDS011;31504;51.716;9.184;2022-09-20T15:32:33;91.05;;;69.18;;
45802;SDS011;31504;51.716;9.184;2022-09-20T15:35:34;81.25;;;64.03;;
45802;SDS011;31504;51.716;9.184;2022-09-20T15:38:34;81.22;;;63.83;;
45802;SDS011;31504;51.716;9.184;2022-09-20T15:41:35;76.60;;;60.33;;
45802;SDS011;31504;51.716;9.184;2022-09-20T15:44:36;79.95;;;60.22;;
45802;SDS011;31504;51.716;9.184;2022-09-20T15:47:37;81.47;;;61.42;;
45802;SDS011;31504;51.716;9.184;2022-09-20T15:50:38;80.67;;;63.47;;
45802;SDS011;31504;51.716;9.184;2022-09-20T15:53:45;82.00;;;64.32;;
45802;SDS011;31504;51.716;9.184;2022-09-20T15:56:52;85.95;;;69.03;;
45802;SDS011;31504;51.716;9.184;2022-09-20T15:59:53;89.20;;;68.72;;
45802;SDS011;31504;51.716;9.184;2022-09-20T16:02:53;93.38;;;70.55;;
45802;SDS011;31504;51.716;9.184;2022-09-20T16:05:57;85.97;;;68.65;;
45802;SDS011;31504;51.716;9.184;2022-09-20T16:09:03;96.28;;;74.95;;
45802;SDS011;31504;51.716;9.184;2022-09-20T16:12:04;104.60;;;83.80;;
45802;SDS011;31504;51.716;9.184;2022-09-20T16:15:05;107.60;;;85.60;;
45802;SDS011;31504;51.716;9.184;2022-09-20T16:18:06;107.68;;;88.05;;
45802;SDS011;31504;51.716;9.184;2022-09-20T16:21:30;111.68;;;89.53;;
45802;SDS011;31504;51.716;9.184;2022-09-20T16:24:32;110.68;;;90.68;;
45802;SDS011;31504;51.716;9.184;2022-09-20T16:27:33;114.78;;;93.40;;
45802;SDS011;31504;51.716;9.184;2022-09-20T16:30:34;116.85;;;94.38;;
45802;SDS011;31504;51.716;9.184;2022-09-20T16:33:34;114.47;;;92.07;;
45802;SDS011;31504;51.716;9.184;2022-09-20T16:36:35;109.32;;;91.28;;
45802;SDS011;31504;51.716;9.184;2022-09-20T16:39:35;108.72;;;89.25;;
45802;SDS011;31504;51.716;9.184;2022-09-20T16:42:36;108.90;;;89.40;;
45802;SDS011;31504;51.716;9.184;2022-09-20T16:45:37;106.78;;;88.43;;
45802;SDS011;31504;51.716;9.184;2022-09-20T16:48:37;106.88;;;84.72;;
45802;SDS011;31504;51.716;9.184;2022-09-20T16:51:39;107.13;;;87.32;;
45802;SDS011;31504;51.716;9.184;2022-09-20T16:54:40;108.10;;;87.88;;
45802;SDS011;31504;51.716;9.184;2022-09-20T16:57:41;110.82;;;90.68;;
45802;SDS011;31504;51.716;9.184;2022-09-20T17:00:41;120.82;;;99.65;;
45802;SDS011;31504;51.716;9.184;2022-09-20T17:03:44;121.60;;;100.30;;
45802;SDS011;31504;51.716;9.184;2022-09-20T17:06:46;131.70;;;108.00;;
45802;SDS011;31504;51.716;9.184;2022-09-20T17:09:47;128.50;;;105.25;;
45802;SDS011;31504;51.716;9.184;2022-09-20T17:12:48;130.85;;;107.72;;
45802;SDS011;31504;51.716;9.184;2022-09-20T17:16:07;136.30;;;112.20;;
45802;SDS011;31504;51.716;9.184;2022-09-20T17:19:16;137.50;;;114.07;;
45802;SDS011;31504;51.716;9.184;2022-09-20T17:22:18;138.93;;;113.90;;
45802;SDS011;31504;51.716;9.184;2022-09-20T17:25:18;136.93;;;111.25;;
45802;SDS011;31504;51.716;9.184;2022-09-20T17:28:19;138.90;;;114.07;;
45802;SDS011;31504;51.716;9.184;2022-09-20T17:31:19;133.63;;;113.75;;
45802;SDS011;31504;51.716;9.184;2022-09-20T17:34:22;129.65;;;109.63;;
45802;SDS011;31504;51.716;9.184;2022-09-20T17:37:24;140.88;;;116.13;;
45802;SDS011;31504;51.716;9.184;2022-09-20T17:40:24;142.73;;;115.90;;
45802;SDS011;31504;51.716;9.184;2022-09-20T17:43:25;142.63;;;118.97;;
45802;SDS011;31504;51.716;9.184;2022-09-20T17:46:28;145.85;;;120.85;;
45802;SDS011;31504;51.716;9.184;2022-09-20T17:49:30;147.77;;;122.38;;
45802;SDS011;31504;51.716;9.184;2022-09-20T17:52:30;150.30;;;123.43;;
45802;SDS011;31504;51.716;9.184;2022-09-20T17:55:31;149.70;;;126.03;;
45802;SDS011;31504;51.716;9.184;2022-09-20T17:58:32;151.25;;;127.50;;
45802;SDS011;31504;51.716;9.184;2022-09-20T18:01:38;156.25;;;128.52;;
45802;SDS011;31504;51.716;9.184;2022-09-20T18:04:39;159.20;;;130.93;;
45802;SDS011;31504;51.716;9.184;2022-09-20T18:07:41;158.65;;;130.13;;
45802;SDS011;31504;51.716;9.184;2022-09-20T18:10:52;156.15;;;130.40;;
45802;SDS011;31504;51.716;9.184;2022-09-20T18:13:54;151.27;;;125.80;;
45802;SDS011;31504;51.716;9.184;2022-09-20T18:16:55;153.65;;;127.55;;
45802;SDS011;31504;51.716;9.184;2022-09-20T18:19:59;156.65;;;127.28;;
45802;SDS011;31504;51.716;9.184;2022-09-20T18:23:00;148.80;;;126.43;;
45802;SDS011;31504;51.716;9.184;2022-09-20T18:26:10;147.57;;;123.28;;
45802;SDS011;31504;51.716;9.184;2022-09-20T18:29:21;142.65;;;121.38;;
45802;SDS011;31504;51.716;9.184;2022-09-20T18:32:23;142.25;;;119.10;;
45802;SDS011;31504;51.716;9.184;2022-09-20T18:35:25;142.38;;;116.30;;
45802;SDS011;31504;51.716;9.184;2022-09-20T18:38:26;141.32;;;116.63;;
45802;SDS011;31504;51.716;9.184;2022-09-20T18:41:27;141.23;;;117.70;;
45802;SDS011;31504;51.716;9.184;2022-09-20T18:44:32;137.07;;;115.27;;
45802;SDS011;31504;51.716;9.184;2022-09-20T18:47:33;130.40;;;110.03;;
45802;SDS011;31504;51.716;9.184;2022-09-20T18:50:33;130.63;;;107.07;;
45802;SDS011;31504;51.716;9.184;2022-09-20T18:53:34;121.78;;;101.80;;
45802;SDS011;31504;51.716;9.184;2022-09-20T18:56:37;117.55;;;98.43;;
45802;SDS011;31504;51.716;9.184;2022-09-20T18:59:38;118.65;;;97.05;;
45802;SDS011;31504;51.716;9.184;2022-09-20T19:02:49;109.00;;;90.23;;
45802;SDS011;31504;51.716;9.184;2022-09-20T19:05:59;107.50;;;88.67;;
45802;SDS011;31504;51.716;9.184;2022-09-20T19:09:09;107.32;;;86.28;;
45802;SDS011;31504;51.716;9.184;2022-09-20T19:22:53;86.05;;;71.07;;
45802;SDS011;31504;51.716;9.184;2022-09-20T19:29:43;78.53;;;66.15;;
45802;SDS011;31504;51.716;9.184;2022-09-20T19:32:44;72.43;;;60.15;;
45802;SDS011;31504;51.716;9.184;2022-09-20T19:35:46;71.10;;;58.83;;
45802;SDS011;31504;51.716;9.184;2022-09-20T19:42:34;68.45;;;54.85;;
45802;SDS011;31504;51.716;9.184;2022-09-20T19:52:13;55.97;;;46.75;;
45802;SDS011;31504;51.716;9.184;2022-09-20T19:55:14;58.13;;;47.97;;
45802;SDS011;31504;51.716;9.184;2022-09-20T19:58:15;53.93;;;44.17;;
45802;SDS011;31504;51.716;9.184;2022-09-20T20:01:16;55.00;;;44.77;;
45802;SDS011;31504;51.716;9.184;2022-09-20T20:04:16;49.47;;;41.72;;
45802;SDS011;31504;51.716;9.184;2022-09-20T20:13:44;44.10;;;35.63;;
45802;SDS011;31504;51.716;9.184;2022-09-20T20:17:18;43.30;;;36.75;;
45802;SDS011;31504;51.716;9.184;2022-09-20T20:20:47;42.72;;;36.50;;
45802;SDS011;31504;51.716;9.184;2022-09-20T20:27:06;35.27;;;30.83;;
45802;SDS011;31504;51.716;9.184;2022-09-20T20:30:07;35.03;;;30.37;;
45802;SDS011;31504;51.716;9.184;2022-09-20T20:33:12;36.00;;;30.37;;
45802;SDS011;31504;51.716;9.184;2022-09-20T20:36:15;33.70;;;29.05;;
45802;SDS011;31504;51.716;9.184;2022-09-20T20:39:16;31.75;;;27.65;;
45802;SDS011;31504;51.716;9.184;2022-09-20T20:42:16;29.83;;;26.63;;
45802;SDS011;31504;51.716;9.184;2022-09-20T20:45:17;29.98;;;25.05;;
45802;SDS011;31504;51.716;9.184;2022-09-20T20:48:18;29.42;;;25.05;;
45802;SDS011;31504;51.716;9.184;2022-09-20T20:51:19;29.58;;;25.27;;
45802;SDS011;31504;51.716;9.184;2022-09-20T20:54:21;27.60;;;23.05;;
45802;SDS011;31504;51.716;9.184;2022-09-20T20:57:22;26.95;;;22.58;;
45802;SDS011;31504;51.716;9.184;2022-09-20T21:00:23;26.85;;;22.27;;
45802;SDS011;31504;51.716;9.184;2022-09-20T21:03:25;26.15;;;21.33;;
45802;SDS011;31504;51.716;9.184;2022-09-20T21:06:29;23.00;;;20.43;;
45802;SDS011;31504;51.716;9.184;2022-09-20T21:09:31;23.23;;;19.92;;
45802;SDS011;31504;51.716;9.184;2022-09-20T21:12:31;22.60;;;19.87;;
45802;SDS011;31504;51.716;9.184;2022-09-20T21:15:32;21.13;;;18.42;;
45802;SDS011;31504;51.716;9.184;2022-09-20T21:18:33;20.15;;;18.05;;
45802;SDS011;31504;51.716;9.184;2022-09-20T21:21:37;21.20;;;18.65;;
45802;SDS011;31504;51.716;9.184;2022-09-20T21:24:39;20.95;;;17.88;;
45802;SDS011;31504;51.716;9.184;2022-09-20T21:27:39;19.52;;;16.67;;
45802;SDS011;31504;51.716;9.184;2022-09-20T21:30:40;19.58;;;16.88;;
45802;SDS011;31504;51.716;9.184;2022-09-20T21:33:40;17.38;;;15.55;;
45802;SDS011;31504;51.716;9.184;2022-09-20T21:36:42;17.63;;;15.18;;
45802;SDS011;31504;51.716;9.184;2022-09-20T21:39:43;17.48;;;15.27;;
45802;SDS011;31504;51.716;9.184;2022-09-20T21:42:44;16.65;;;14.85;;
45802;SDS011;31504;51.716;9.184;2022-09-20T21:45:44;17.02;;;13.77;;
45802;SDS011;31504;51.716;9.184;2022-09-20T21:48:45;17.55;;;14.73;;
45802;SDS011;31504;51.716;9.184;2022-09-20T21:51:47;15.15;;;13.52;;
45802;SDS011;31504;51.716;9.184;2022-09-20T21:54:50;15.88;;;13.23;;
45802;SDS011;31504;51.716;9.184;2022-09-20T21:57:51;17.75;;;14.13;;
45802;SDS011;31504;51.716;9.184;2022-09-20T22:01:02;15.03;;;12.67;;
45802;SDS011;31504;51.716;9.184;2022-09-20T22:04:10;14.10;;;12.10;;